This is the latest recevied weather packets stored in our database for station/object AD4CG. If no packets are shown the sender has not sent any weather packets the latest 10 day(s).
| Time | Temp. | Humidity | Pressure | Rain* | Wind** | Luminosity | Snow |
|---|---|---|---|---|---|---|---|
| 1777828925 | 16.11° C | 30% | 1019 hPa | 0 mm | - | - | - |
| 1777828600 | 16.11° C | 26% | 1019 hPa | 0 mm | - | - | - |
| 1777828267 | 16.11° C | 25% | 1019.3 hPa | 0 mm | - | - | - |
| 1777821346 | 13.89° C | 34% | 1020 hPa | 0 mm | - | - | - |
| 1777820081 | 13.33° C | 44% | 1020 hPa | 0 mm | - | - | - |
| 1777818824 | 13.33° C | 46% | 1020 hPa | 0 mm | - | - | - |
| 1777815999 | 12.78° C | 61% | 1020 hPa | 0 mm | - | - | - |
| 1777815360 | 12.22° C | 64% | 1020 hPa | 0 mm | - | - | - |
| 1777815028 | 11.67° C | 69% | 1020 hPa | 0 mm | - | - | - |
| 1777813137 | 10.56° C | 82% | 1020.3 hPa | 0 mm | - | - | - |
| 1777812804 | 10.56° C | 88% | 1019.6 hPa | 0 mm | - | - | - |
| 1777810909 | 9.44° C | 99% | 1019.6 hPa | 0 mm | - | - | - |
| 1777809975 | 8.89° C | 100% | 1019.6 hPa | 0 mm | - | - | - |
| 1777808736 | 8.33° C | 100% | 1019.3 hPa | 0 mm | - | - | - |
| 1777808110 | 7.78° C | 100% | 1019.3 hPa | 0 mm | - | - | - |
| 1777806871 | 7.22° C | 100% | 1019 hPa | 0 mm | - | - | - |
| 1777805317 | 6.11° C | 100% | 1017.9 hPa | 0 mm | - | - | - |
| 1777802523 | 6.11° C | 100% | 1017.3 hPa | 0 mm | - | - | - |
| 1777799113 | 6.11° C | 100% | 1016.9 hPa | 0 mm | - | - | - |
| 1777798767 | 6.11° C | 100% | 1017.3 hPa | 0 mm | - | - | - |
| 1777797812 | 6.11° C | 100% | 1016.9 hPa | 0 mm | - | - | - |
| 1777793440 | 7.78° C | 100% | 1016.3 hPa | 0 mm | - | - | - |
| 1777790304 | 8.33° C | 100% | 1015.6 hPa | 0 mm | - | - | - |
| 1777789061 | 8.89° C | 100% | 1015.6 hPa | 0 mm | - | - | - |
| 1777786895 | 8.89° C | 100% | 1015.6 hPa | 0 mm | - | - | - |
* Rain latest hour (hover to see other rain measurements)
** Current wind speed in m/s (hover to see current wind gust speed)